James Golding — WDG8741 — position and weather

sailwx.info

Track history (hours):
 
Tides and Currents Weather Stations Pressure Air Temp Water Temp Dewpoint Dewpoint Depression Visibility Wind Speed Wind Dir Waves Ship Positions

James Golding

Owner: GOLDING BARGE LINE, INC, VICKSBURG, MS. More information available from US FCC via Universal Licensing System and Coast Guard Vessel Documentation Center.

Last reported at 2018-Jul-20 06:28 UTC. Time now 2018-Jul-20 06:45 UTC.
Position N 29°24' W 094°45'.

Length 209 m; draft 2.9 m.

Type: . MMSI: 367580620.

Date/timePositionNaut miles runAvg speedWind from/ knotsBaromVisibWave heightAir tempDewpointWater temp
2018-Jul-20 06:28N 29°24' W 094°45'0 0.0
2018-Jul-20 06:00N 29°24' W 094°45'0 0.0
2018-Jul-20 05:28N 29°24' W 094°45'0 0.0
2018-Jul-20 05:00N 29°24' W 094°45'0 0.0
2018-Jul-20 04:30N 29°24' W 094°45'0 0.0
2018-Jul-20 04:00N 29°24' W 094°45'0 0.0
2018-Jul-20 03:30N 29°24' W 094°45'0 0.0
2018-Jul-20 03:00N 29°24' W 094°45'0 0.0
2018-Jul-20 02:31N 29°24' W 094°45'0 0.0
2018-Jul-20 02:00N 29°24' W 094°45'0 0.0
2018-Jul-20 01:31N 29°24' W 094°45'0 0.0
2018-Jul-20 01:01N 29°24' W 094°45'0 0.0
2018-Jul-20 00:30N 29°24' W 094°45'0 0.0
2018-Jul-20 00:00N 29°24' W 094°45'0 0.0
2018-Jul-19 18:49N 29°24' W 094°45'0 0.0
2018-Jul-19 16:51N 29°24' W 094°45'1 0.8
2018-Jul-19 15:50N 29°25' W 094°44'2 5.2
2018-Jul-19 15:30N 29°26' W 094°43'2 4.5
2018-Jul-19 14:58N 29°27' W 094°41'6 5.8
2018-Jul-19 13:58N 29°30' W 094°35'3 5.9
2018-Jul-19 13:27N 29°31' W 094°32'3 5.7
2018-Jul-19 12:58N 29°32' W 094°29'3 5.4
2018-Jul-19 12:30N 29°34' W 094°27'2 4.3
2018-Jul-19 12:00N 29°35' W 094°25'2 4.2
2018-Jul-19 11:30N 29°36' W 094°23'2 3.4
2018-Jul-19 11:00N 29°37' W 094°21'2 3.2
2018-Jul-19 10:29N 29°38' W 094°19'2 4.2
2018-Jul-19 10:00N 29°38' W 094°17'2 4.2
2018-Jul-19 09:30N 29°39' W 094°15'2 4.2
2018-Jul-19 09:00N 29°40' W 094°13'2 4.1
2018-Jul-19 08:31N 29°41' W 094°11'1 1.9
2018-Jul-19 08:00N 29°41' W 094°10'2 4.1
2018-Jul-19 07:31N 29°43' W 094°08'2 4.1
2018-Jul-19 07:01N 29°44' W 094°06'2 4.2
2018-Jul-19 06:30N 29°45' W 094°04'2 4.3
2018-Jul-19 06:00N 29°47' W 094°02'2 4.4
2018-Jul-19 05:31N 29°48' W 094°00'2 4.2
2018-Jul-19 05:01N 29°49' W 093°58'2 3.3
2018-Jul-19 04:31N 29°51' W 093°57'3 5.4
2018-Jul-19 04:01N 29°53' W 093°55'3 5.5
2018-Jul-19 03:31N 29°55' W 093°53'3 5.6
2018-Jul-19 03:01N 29°57' W 093°52'3 5.1
2018-Jul-19 02:31N 29°59' W 093°49'3 5.4
2018-Jul-19 02:01N 29°60' W 093°46'3 5.2
2018-Jul-19 01:30N 30°02' W 093°44'2 4.4
2018-Jul-19 01:01N 30°03' W 093°42'3 5.0
2018-Jul-19 00:30N 30°04' W 093°39'2 3.7
2018-Jul-18 23:59N 30°04' W 093°37'2 3.9
2018-Jul-18 23:27N 30°04' W 093°35'2 3.9
2018-Jul-18 23:00N 30°04' W 093°33'2 4.3
2018-Jul-18 22:31N 30°04' W 093°30'2 4.4
2018-Jul-18 22:00N 30°04' W 093°28'2 4.4
2018-Jul-18 21:30N 30°04' W 093°25'2 4.1
2018-Jul-18 21:00N 30°04' W 093°23'2 3.9
2018-Jul-18 20:31N 30°04' W 093°21'2 4.3
2018-Jul-18 20:00N 30°06' W 093°20'3 6.9
2018-Jul-18 19:30N 30°09' W 093°20'3 6.8
2018-Jul-18 19:01N 30°12' W 093°17'2 3.6
2018-Jul-18 18:31N 30°13' W 093°16'0 0.5
2018-Jul-18 18:01N 30°13' W 093°16'0 0.9
2018-Jul-18 17:30N 30°14' W 093°15'0 0.0
2018-Jul-18 17:01N 30°14' W 093°15'0 0.0
2018-Jul-18 16:31N 30°14' W 093°15'0 0.0
2018-Jul-18 16:01N 30°14' W 093°15'0 0.0
2018-Jul-18 15:31N 30°14' W 093°15'0 0.0
2018-Jul-18 15:00N 30°14' W 093°15'0 0.0
2018-Jul-18 14:31N 30°14' W 093°15'0 0.0
2018-Jul-18 13:30N 30°14' W 093°15'0 0.0
2018-Jul-18 13:01N 30°14' W 093°15'0 0.0
2018-Jul-18 12:30N 30°14' W 093°15'0 0.0
2018-Jul-18 12:00N 30°14' W 093°15'0 0.0
2018-Jul-18 11:30N 30°14' W 093°15'0 0.0
2018-Jul-18 10:30N 30°14' W 093°15'0 0.0
2018-Jul-18 10:00N 30°14' W 093°15'0 0.0
2018-Jul-18 09:30N 30°14' W 093°15'0 0.0
2018-Jul-18 09:01N 30°14' W 093°15'0 0.0
2018-Jul-18 08:31N 30°14' W 093°15'0 0.0
2018-Jul-18 08:01N 30°14' W 093°15'0 0.0
2018-Jul-18 07:31N 30°14' W 093°15'0 0.0
2018-Jul-18 06:59N 30°14' W 093°15'0 0.0
2018-Jul-18 06:30N 30°14' W 093°15'0 0.0
2018-Jul-18 06:00N 30°14' W 093°15'0 0.0
2018-Jul-18 05:31N 30°14' W 093°15'0 0.0
2018-Jul-18 05:01N 30°14' W 093°15'0 0.0
2018-Jul-18 04:31N 30°14' W 093°15'0 0.0
2018-Jul-18 04:01N 30°14' W 093°15'0 0.0
2018-Jul-18 03:31N 30°14' W 093°15'0 0.0
2018-Jul-18 03:01N 30°14' W 093°15'0 0.0
2018-Jul-18 02:31N 30°14' W 093°15'0 0.0
2018-Jul-18 02:01N 30°14' W 093°15'0 0.0
2018-Jul-18 01:30N 30°14' W 093°15'0 0.0
2018-Jul-18 01:01N 30°14' W 093°15'0 0.0
2018-Jul-18 00:31N 30°14' W 093°15'0 0.0
2018-Jul-18 00:01N 30°14' W 093°15'0 0.0
2018-Jul-17 23:30N 30°14' W 093°15'0 0.0
2018-Jul-17 23:01N 30°14' W 093°15'0 0.0
2018-Jul-17 22:31N 30°14' W 093°15'0 0.0
2018-Jul-17 22:00N 30°14' W 093°15'0 0.0
2018-Jul-17 21:30N 30°14' W 093°15'0 0.0
2018-Jul-17 21:01N 30°14' W 093°15'0 0.0
2018-Jul-17 20:29N 30°14' W 093°15'0 0.0
2018-Jul-17 19:56N 30°14' W 093°15'0 1.0
2018-Jul-17 19:31N 30°14' W 093°16'0 0.5
2018-Jul-17 19:00N 30°13' W 093°16'0 0.0
2018-Jul-17 18:31N 30°13' W 093°16'1 1.2
2018-Jul-17 18:01N 30°14' W 093°15'1 1.3
2018-Jul-17 17:31N 30°13' W 093°16'0 0.0
2018-Jul-17 17:01N 30°13' W 093°16'0 0.0
2018-Jul-17 16:31N 30°13' W 093°16'0 0.0
2018-Jul-17 16:00N 30°13' W 093°16'0 0.0
2018-Jul-17 15:31N 30°13' W 093°16'0 0.0
2018-Jul-17 15:01N 30°13' W 093°16'0 0.0
2018-Jul-17 14:30N 30°13' W 093°16'0 0.0
2018-Jul-17 14:01N 30°13' W 093°16'0 0.0
2018-Jul-17 13:31N 30°13' W 093°16'0 0.0
2018-Jul-17 12:58N 30°13' W 093°16'0 0.0
2018-Jul-17 12:31N 30°13' W 093°16'0 0.0
2018-Jul-17 12:01N 30°13' W 093°16'0 0.0
2018-Jul-17 11:31N 30°13' W 093°16'0 0.0
2018-Jul-17 11:01N 30°13' W 093°16'0 0.0
2018-Jul-17 10:31N 30°13' W 093°16'0 0.0
2018-Jul-17 10:01N 30°13' W 093°16'0 0.0
2018-Jul-17 09:30N 30°13' W 093°16'0 0.0
2018-Jul-17 09:01N 30°13' W 093°16'0 0.0
2018-Jul-17 08:30N 30°13' W 093°16'0 0.0
2018-Jul-17 08:01N 30°13' W 093°16'0 0.0
2018-Jul-17 07:31N 30°13' W 093°16'0 0.0
2018-Jul-17 07:01N 30°13' W 093°16'0 0.0
2018-Jul-17 06:30N 30°13' W 093°16'0 0.0
2018-Jul-17 05:59N 30°13' W 093°16'0 0.0
2018-Jul-17 05:20N 30°13' W 093°16'0 0.0
2018-Jul-17 05:00N 30°13' W 093°16'0 0.0
2018-Jul-17 04:18N 30°13' W 093°16'0 0.0
2018-Jul-17 03:15N 30°13' W 093°16'0 0.0
2018-Jul-17 03:00N 30°13' W 093°16'0 0.0
2018-Jul-17 02:31N 30°13' W 093°16'0 0.0
2018-Jul-17 02:00N 30°13' W 093°16'0 0.0
2018-Jul-17 01:30N 30°13' W 093°16'0 0.0
2018-Jul-17 01:00N 30°13' W 093°16'0 0.0
2018-Jul-17 00:31N 30°13' W 093°16'0 0.0
2018-Jul-16 23:31N 30°13' W 093°16'0 0.0
2018-Jul-16 23:01N 30°13' W 093°16'0 0.0
2018-Jul-16 22:30N 30°13' W 093°16'0 0.0
2018-Jul-16 22:01N 30°13' W 093°16'0 0.0
2018-Jul-16 21:31N 30°13' W 093°16'0 0.0
2018-Jul-16 21:01N 30°13' W 093°16'0 0.0
2018-Jul-16 20:30N 30°13' W 093°16'0 0.0
2018-Jul-16 20:01N 30°13' W 093°16'0 0.0
2018-Jul-16 19:31N 30°13' W 093°16'0 0.0
2018-Jul-16 19:00N 30°13' W 093°16'0 0.0
2018-Jul-16 18:30N 30°13' W 093°16'0 0.0
2018-Jul-16 18:01N 30°13' W 093°16'0 0.0
2018-Jul-16 17:31N 30°13' W 093°16'0 0.0
2018-Jul-16 17:00N 30°13' W 093°16'0 0.0
2018-Jul-16 16:31N 30°13' W 093°16'0 0.0
2018-Jul-16 16:01N 30°13' W 093°16'0 0.0
2018-Jul-16 15:31N 30°13' W 093°16'0 0.0
2018-Jul-16 15:01N 30°13' W 093°16'0 0.0
2018-Jul-16 14:31N 30°13' W 093°16'0 0.0
2018-Jul-16 14:01N 30°13' W 093°16'0 0.0
2018-Jul-16 13:31N 30°13' W 093°16'0 0.0
2018-Jul-16 13:01N 30°13' W 093°16'0 0.0
2018-Jul-16 12:30N 30°13' W 093°16'0 0.0
2018-Jul-16 12:01N 30°13' W 093°16'0 0.0
2018-Jul-16 11:30N 30°13' W 093°16'0 0.0
2018-Jul-16 11:00N 30°13' W 093°16'0 0.0
2018-Jul-16 10:31N 30°13' W 093°16'0 0.0
2018-Jul-16 10:01N 30°13' W 093°16'0 0.0
2018-Jul-16 09:31N 30°13' W 093°16'0 0.0
2018-Jul-16 09:01N 30°13' W 093°16'0 0.0
2018-Jul-16 08:30N 30°13' W 093°16'0 0.0
2018-Jul-16 08:01N 30°13' W 093°16'0 0.0
2018-Jul-16 07:31N 30°13' W 093°16'0 0.0
2018-Jul-16 07:00N 30°13' W 093°16'0 0.0
2018-Jul-16 06:31N 30°13' W 093°16'0 0.0
2018-Jul-16 06:00N 30°13' W 093°16'0 0.0
2018-Jul-16 05:30N 30°13' W 093°16'0 0.0
2018-Jul-16 05:01N 30°13' W 093°16'0 0.0
2018-Jul-16 04:31N 30°13' W 093°16'0 0.0
2018-Jul-16 04:00N 30°13' W 093°16'0 0.0
2018-Jul-16 03:31N 30°13' W 093°16'0 0.0
2018-Jul-16 03:01N 30°13' W 093°16'0 0.0
2018-Jul-16 02:31N 30°13' W 093°16'0 0.0
2018-Jul-16 02:00N 30°13' W 093°16'0 0.0
2018-Jul-16 01:31N 30°13' W 093°16'0 0.1
2018-Jul-16 00:59N 30°13' W 093°16'0 0.1
2018-Jul-16 00:30N 30°13' W 093°16'0 0.0
2018-Jul-16 00:01N 30°13' W 093°16'0 0.0
2018-Jul-15 23:28N 30°13' W 093°16'0 0.0
2018-Jul-15 23:00N 30°13' W 093°16'0 0.0
2018-Jul-15 22:31N 30°13' W 093°16'0 0.0
2018-Jul-15 22:01N 30°13' W 093°16'0 0.0
2018-Jul-15 21:31N 30°13' W 093°16'0 0.0
2018-Jul-15 21:01N 30°13' W 093°16'0 0.0
2018-Jul-15 20:31N 30°13' W 093°16'0 0.0
2018-Jul-15 20:00N 30°13' W 093°16'0 0.0
2018-Jul-15 19:30N 30°13' W 093°16'0 0.0
2018-Jul-15 19:01N 30°13' W 093°16'0 0.0
2018-Jul-15 18:31N 30°13' W 093°16'0 0.0
2018-Jul-15 17:59N 30°13' W 093°16'0 0.0
2018-Jul-15 17:30N 30°13' W 093°16'0 0.0
2018-Jul-15 17:00N 30°13' W 093°16'0 0.0
2018-Jul-15 16:30N 30°13' W 093°16'0 0.0
2018-Jul-15 16:01N 30°13' W 093°16'0 0.0
2018-Jul-15 15:31N 30°13' W 093°16'0 0.0
2018-Jul-15 15:00N 30°13' W 093°16'0 0.0
2018-Jul-15 14:31N 30°13' W 093°16'0 0.0
2018-Jul-15 14:00N 30°13' W 093°16'0 0.0
2018-Jul-15 13:28N 30°13' W 093°16'0 0.0
2018-Jul-15 13:00N 30°13' W 093°16'0 0.0
2018-Jul-15 12:30N 30°13' W 093°16'0 0.0
2018-Jul-15 12:00N 30°13' W 093°16'0 0.0
2018-Jul-15 11:30N 30°13' W 093°16'0 0.0
2018-Jul-15 11:00N 30°13' W 093°16'0 0.0
2018-Jul-15 10:31N 30°13' W 093°16'0 0.0
2018-Jul-15 10:00N 30°13' W 093°16'0 0.0
2018-Jul-15 09:31N 30°13' W 093°16'0 0.1
2018-Jul-15 09:00N 30°13' W 093°16'0 0.0
2018-Jul-15 08:29N 30°13' W 093°16'0 0.0
2018-Jul-15 08:01N 30°13' W 093°16'0 0.0
2018-Jul-15 07:27N 30°13' W 093°16'0 0.0
2018-Jul-15 06:59N 30°13' W 093°16'0 0.0
2018-Jul-15 06:21N 30°13' W 093°16'0 0.0
2018-Jul-15 05:58N 30°13' W 093°16'0 0.0
2018-Jul-15 05:25N 30°13' W 093°16'0 0.0
2018-Jul-15 04:54N 30°13' W 093°16'0 0.0
2018-Jul-15 04:30N 30°13' W 093°16'0 0.0
2018-Jul-15 03:58N 30°13' W 093°16'0 0.0
2018-Jul-15 03:27N 30°13' W 093°16'0 0.0
2018-Jul-15 02:59N 30°13' W 093°16'0 0.0
2018-Jul-15 02:28N 30°13' W 093°16'0 0.0
2018-Jul-15 01:58N 30°13' W 093°16'0 0.0
2018-Jul-15 01:30N 30°13' W 093°16'0 0.0
2018-Jul-15 01:00N 30°13' W 093°16'0 0.0
2018-Jul-15 00:30N 30°13' W 093°16'0 0.0
2018-Jul-14 23:59N 30°13' W 093°16'0 0.0
2018-Jul-14 23:30N 30°13' W 093°16'0 0.0
2018-Jul-14 22:54N 30°13' W 093°16'0 0.0
2018-Jul-14 22:25N 30°13' W 093°16'0 0.0
2018-Jul-14 22:00N 30°13' W 093°16'0 0.0
2018-Jul-14 21:30N 30°13' W 093°16'0 0.0
2018-Jul-14 20:57N 30°13' W 093°16'0 0.0
2018-Jul-14 20:30N 30°13' W 093°16'0 0.0
2018-Jul-14 19:58N 30°13' W 093°16'0 0.0
2018-Jul-14 19:30N 30°13' W 093°16'0 0.0
2018-Jul-14 19:01N 30°13' W 093°16'0 0.0
2018-Jul-14 18:31N 30°13' W 093°16'0 0.0
2018-Jul-14 17:59N 30°13' W 093°16'0 0.0
2018-Jul-14 17:30N 30°13' W 093°16'0 0.0
2018-Jul-14 17:00N 30°13' W 093°16'0 0.0
2018-Jul-14 16:30N 30°13' W 093°16'0 0.0
2018-Jul-14 16:00N 30°13' W 093°16'0 0.0
2018-Jul-14 15:28N 30°13' W 093°16'0 0.0
2018-Jul-14 15:01N 30°13' W 093°16'0 0.0
2018-Jul-14 14:31N 30°13' W 093°16'0 0.0
2018-Jul-14 13:31N 30°13' W 093°16'0 0.0
2018-Jul-14 13:01N 30°13' W 093°16'0 0.0
2018-Jul-14 12:29N 30°13' W 093°16'0 0.0
2018-Jul-14 11:58N 30°13' W 093°16'0 0.0
2018-Jul-14 11:30N 30°13' W 093°16'0 0.0
2018-Jul-14 10:57N 30°13' W 093°16'0 0.0
2018-Jul-14 10:28N 30°13' W 093°16'0 0.0
2018-Jul-14 09:59N 30°13' W 093°16'0 0.0
2018-Jul-14 09:30N 30°13' W 093°16'0 0.0
2018-Jul-14 09:00N 30°13' W 093°16'0 0.0
2018-Jul-14 08:29N 30°13' W 093°16'0 0.0
2018-Jul-14 08:01N 30°13' W 093°16'0 0.0
2018-Jul-14 07:30N 30°13' W 093°16'0 0.0
2018-Jul-14 07:01N 30°13' W 093°16'0 0.0
2018-Jul-14 06:30N 30°13' W 093°16'0 0.0
2018-Jul-14 05:59N 30°13' W 093°16'0 0.0
2018-Jul-14 05:30N 30°13' W 093°16'0 0.0
2018-Jul-14 04:58N 30°13' W 093°16'0 0.0
2018-Jul-14 04:30N 30°13' W 093°16'0 0.0
2018-Jul-14 03:59N 30°13' W 093°16'0 0.0
2018-Jul-14 03:25N 30°13' W 093°16'0 0.0
2018-Jul-14 02:58N 30°13' W 093°16'0 0.0
2018-Jul-14 02:30N 30°13' W 093°16'0 0.0
2018-Jul-14 02:01N 30°13' W 093°16'0 0.0
2018-Jul-14 01:31N 30°13' W 093°16'0 0.0
2018-Jul-14 01:01N 30°13' W 093°16'0 0.0
2018-Jul-14 00:30N 30°13' W 093°16'0 0.0
2018-Jul-14 00:00N 30°13' W 093°16'0 0.0
2018-Jul-13 23:31N 30°13' W 093°16'0 0.0
2018-Jul-13 23:00N 30°13' W 093°16'0 0.0
2018-Jul-13 22:31N 30°13' W 093°16'0 0.0
2018-Jul-13 22:01N 30°13' W 093°16'0 0.0
2018-Jul-13 21:31N 30°13' W 093°16'0 0.0
2018-Jul-13 21:00N 30°13' W 093°16'0 0.0
2018-Jul-13 20:31N 30°13' W 093°16'0 0.0
2018-Jul-13 20:01N 30°13' W 093°16'0 0.0
2018-Jul-13 19:31N 30°13' W 093°16'0 0.0
2018-Jul-13 19:01N 30°13' W 093°16'0 0.0
2018-Jul-13 18:31N 30°13' W 093°16'0 0.0
2018-Jul-13 18:00N 30°13' W 093°16'0 0.0
2018-Jul-13 17:30N 30°13' W 093°16'0 0.7
2018-Jul-13 17:01N 30°13' W 093°16'3 6.8
2018-Jul-13 16:31N 30°11' W 093°19'3 6.6
2018-Jul-13 16:01N 30°08' W 093°20'3 5.8
2018-Jul-13 15:31N 30°05' W 093°20'2 4.2
2018-Jul-13 15:01N 30°04' W 093°22'1 1.6
2018-Jul-13 14:31N 30°04' W 093°23'4 4.4
2018-Jul-13 13:31N 30°04' W 093°28'1 1.7
2018-Jul-13 13:01N 30°04' W 093°29'1 1.0
2018-Jul-13 12:31N 30°04' W 093°29'2 3.0
2018-Jul-13 12:01N 30°04' W 093°31'3 5.5
2018-Jul-13 11:31N 30°04' W 093°34'2 4.6
2018-Jul-13 11:00N 30°04' W 093°37'2 3.7
2018-Jul-13 10:30N 30°04' W 093°39'3 5.6
2018-Jul-13 10:00N 30°03' W 093°42'3 6.7
2018-Jul-13 09:31N 30°01' W 093°45'4 7.2
2018-Jul-13 09:01N 29°59' W 093°49'3 5.5
2018-Jul-13 08:30N 29°58' W 093°51'4 7.4
2018-Jul-13 08:01N 29°54' W 093°54'4 7.2
2018-Jul-13 07:31N 29°52' W 093°56'3 6.0
2018-Jul-13 07:01N 29°49' W 093°58'2 3.3
2018-Jul-13 06:30N 29°48' W 094°00'3 5.2
2018-Jul-13 06:00N 29°47' W 094°02'2 4.5
2018-Jul-13 05:30N 29°45' W 094°04'2 4.8
2018-Jul-13 05:00N 29°44' W 094°06'3 5.5
2018-Jul-13 04:30N 29°42' W 094°09'3 5.5
2018-Jul-13 04:01N 29°41' W 094°12'3 5.4
2018-Jul-13 03:30N 29°40' W 094°15'3 5.3
2018-Jul-13 03:00N 29°38' W 094°17'3 5.4
2018-Jul-13 02:30N 29°37' W 094°20'4 4.4
2018-Jul-13 01:42N 29°36' W 094°24'1 4.1
2018-Jul-13 01:26N 29°35' W 094°25'3 4.0
2018-Jul-13 00:48N 29°34' W 094°27'2 6.2
2018-Jul-13 00:30N 29°32' W 094°29'13 5.7
2018-Jul-12 22:11N 29°26' W 094°42'3 3.4
2018-Jul-12 21:12N 29°24' W 094°45'1 5.6
2018-Jul-12 21:00N 29°23' W 094°46'2 5.0
2018-Jul-12 20:31N 29°23' W 094°49'4 7.9
2018-Jul-12 20:01N 29°27' W 094°50'4 7.8
2018-Jul-12 19:30N 29°30' W 094°52'4 7.8
2018-Jul-12 19:00N 29°34' W 094°55'4 7.9
2018-Jul-12 18:31N 29°37' W 094°57'4 8.0
2018-Jul-12 18:01N 29°41' W 094°59'4 6.4
2018-Jul-12 17:27N 29°43' W 095°01'4 7.2
2018-Jul-12 16:56N 29°46' W 095°05'1 1.3
2018-Jul-12 16:18N 29°46' W 095°05'0 0.9
2018-Jul-12 15:54N 29°46' W 095°05'1 0.3
2018-Jul-12 11:57N 29°45' W 095°06'0 0.0
2018-Jul-12 08:56N 29°45' W 095°06'1 1.3
2018-Jul-12 07:56N 29°46' W 095°05'3 5.3
2018-Jul-12 07:23N 29°44' W 095°08'5 0.4
2018-Jul-11 18:13N 29°44' W 095°14'0 0.0
2018-Jul-11 14:29N 29°44' W 095°14'0 0.0
2018-Jul-11 13:59N 29°44' W 095°14'0 0.0
2018-Jul-11 13:20N 29°44' W 095°14'0 0.0
2018-Jul-11 13:00N 29°44' W 095°14'0 0.0
2018-Jul-11 12:30N 29°44' W 095°14'0 0.1
2018-Jul-11 12:01N 29°44' W 095°14'3 2.4
2018-Jul-11 10:44N 29°45' W 095°11'3 7.5
2018-Jul-11 10:22N 29°44' W 095°08'3 7.3
2018-Jul-11 10:00N 29°46' W 095°05'0 0.0
2018-Jul-11 09:24N 29°46' W 095°05'0 0.0
2018-Jul-11 09:00N 29°46' W 095°05'0 0.0
2018-Jul-11 08:30N 29°46' W 095°05'0 0.0
2018-Jul-11 08:00N 29°46' W 095°05'0 0.0
2018-Jul-11 07:30N 29°46' W 095°05'0 0.0
2018-Jul-11 07:00N 29°46' W 095°05'0 0.0
2018-Jul-11 06:24N 29°46' W 095°05'0 0.0
2018-Jul-11 06:00N 29°46' W 095°05'0 0.0
2018-Jul-11 05:30N 29°46' W 095°05'0 0.0
2018-Jul-11 05:01N 29°46' W 095°05'0 0.0
2018-Jul-11 04:28N 29°46' W 095°05'0 0.0
2018-Jul-11 04:00N 29°46' W 095°05'0 0.0
2018-Jul-11 03:30N 29°46' W 095°05'0 0.0
2018-Jul-11 02:58N 29°46' W 095°05'0 0.1
2018-Jul-11 02:30N 29°46' W 095°05'1 0.2
2018-Jul-10 21:27N 29°45' W 095°06'3 6.0
2018-Jul-10 20:56N 29°44' W 095°09'4 0.9
2018-Jul-10 16:22N 29°46' W 095°05'1 1.7
2018-Jul-10 16:00N 29°46' W 095°06'1 1.1
2018-Jul-10 15:28N 29°46' W 095°05'0 0.0
2018-Jul-10 14:17N 29°46' W 095°05'0 0.0
2018-Jul-10 13:53N 29°46' W 095°05'0 0.0
2018-Jul-10 13:13N 29°46' W 095°05'0 0.0
2018-Jul-10 12:43N 29°46' W 095°05'0 0.0
2018-Jul-10 12:25N 29°46' W 095°05'0 0.0
2018-Jul-10 11:59N 29°46' W 095°05'0 0.0
2018-Jul-10 11:29N 29°46' W 095°05'0 0.0
2018-Jul-10 10:23N 29°46' W 095°05'1 1.8
2018-Jul-10 09:59N 29°46' W 095°06'1 1.2
2018-Jul-10 09:21N 29°46' W 095°05'0 0.0
2018-Jul-10 08:36N 29°46' W 095°05'0 0.0
2018-Jul-10 08:16N 29°46' W 095°05'0 0.0
2018-Jul-10 08:01N 29°46' W 095°05'0 0.0
2018-Jul-10 07:13N 29°46' W 095°05'0 0.0
2018-Jul-10 06:58N 29°46' W 095°05'  
Track history (hours):
 
Tides and Currents Weather Stations Pressure Air Temp Water Temp Dewpoint Dewpoint Depression Visibility Wind Speed Wind Dir Waves Ship Positions

James Golding

Owner: GOLDING BARGE LINE, INC, VICKSBURG, MS. More information available from US FCC via Universal Licensing System and Coast Guard Vessel Documentation Center.

Last reported at 2018-Jul-20 06:28 UTC. Time now 2018-Jul-20 06:45 UTC.
Position N 29°24' W 094°45'.

Length 209 m; draft 2.9 m.

Type: . MMSI: 367580620.

Date/timePositionNaut miles runAvg speedWind from/ knotsBaromVisibWave heightAir tempDewpointWater temp
2018-Jul-20 06:28N 29°24' W 094°45'0 0.0
2018-Jul-20 06:00N 29°24' W 094°45'0 0.0
2018-Jul-20 05:28N 29°24' W 094°45'0 0.0
2018-Jul-20 05:00N 29°24' W 094°45'0 0.0
2018-Jul-20 04:30N 29°24' W 094°45'0 0.0
2018-Jul-20 04:00N 29°24' W 094°45'0 0.0
2018-Jul-20 03:30N 29°24' W 094°45'0 0.0
2018-Jul-20 03:00N 29°24' W 094°45'0 0.0
2018-Jul-20 02:31N 29°24' W 094°45'0 0.0
2018-Jul-20 02:00N 29°24' W 094°45'0 0.0
2018-Jul-20 01:31N 29°24' W 094°45'0 0.0
2018-Jul-20 01:01N 29°24' W 094°45'0 0.0
2018-Jul-20 00:30N 29°24' W 094°45'0 0.0
2018-Jul-20 00:00N 29°24' W 094°45'0 0.0
2018-Jul-19 18:49N 29°24' W 094°45'0 0.0
2018-Jul-19 16:51N 29°24' W 094°45'1 0.8
2018-Jul-19 15:50N 29°25' W 094°44'2 5.2
2018-Jul-19 15:30N 29°26' W 094°43'2 4.5
2018-Jul-19 14:58N 29°27' W 094°41'6 5.8
2018-Jul-19 13:58N 29°30' W 094°35'3 5.9
2018-Jul-19 13:27N 29°31' W 094°32'3 5.7
2018-Jul-19 12:58N 29°32' W 094°29'3 5.4
2018-Jul-19 12:30N 29°34' W 094°27'2 4.3
2018-Jul-19 12:00N 29°35' W 094°25'2 4.2
2018-Jul-19 11:30N 29°36' W 094°23'2 3.4
2018-Jul-19 11:00N 29°37' W 094°21'2 3.2
2018-Jul-19 10:29N 29°38' W 094°19'2 4.2
2018-Jul-19 10:00N 29°38' W 094°17'2 4.2
2018-Jul-19 09:30N 29°39' W 094°15'2 4.2
2018-Jul-19 09:00N 29°40' W 094°13'2 4.1
2018-Jul-19 08:31N 29°41' W 094°11'1 1.9
2018-Jul-19 08:00N 29°41' W 094°10'2 4.1
2018-Jul-19 07:31N 29°43' W 094°08'2 4.1
2018-Jul-19 07:01N 29°44' W 094°06'2 4.2
2018-Jul-19 06:30N 29°45' W 094°04'2 4.3
2018-Jul-19 06:00N 29°47' W 094°02'2 4.4
2018-Jul-19 05:31N 29°48' W 094°00'2 4.2
2018-Jul-19 05:01N 29°49' W 093°58'2 3.3
2018-Jul-19 04:31N 29°51' W 093°57'3 5.4
2018-Jul-19 04:01N 29°53' W 093°55'3 5.5
2018-Jul-19 03:31N 29°55' W 093°53'3 5.6
2018-Jul-19 03:01N 29°57' W 093°52'3 5.1
2018-Jul-19 02:31N 29°59' W 093°49'3 5.4
2018-Jul-19 02:01N 29°60' W 093°46'3 5.2
2018-Jul-19 01:30N 30°02' W 093°44'2 4.4
2018-Jul-19 01:01N 30°03' W 093°42'3 5.0
2018-Jul-19 00:30N 30°04' W 093°39'2 3.7
2018-Jul-18 23:59N 30°04' W 093°37'2 3.9
2018-Jul-18 23:27N 30°04' W 093°35'2 3.9
2018-Jul-18 23:00N 30°04' W 093°33'2 4.3
2018-Jul-18 22:31N 30°04' W 093°30'2 4.4
2018-Jul-18 22:00N 30°04' W 093°28'2 4.4
2018-Jul-18 21:30N 30°04' W 093°25'2 4.1
2018-Jul-18 21:00N 30°04' W 093°23'2 3.9
2018-Jul-18 20:31N 30°04' W 093°21'2 4.3
2018-Jul-18 20:00N 30°06' W 093°20'3 6.9
2018-Jul-18 19:30N 30°09' W 093°20'3 6.8
2018-Jul-18 19:01N 30°12' W 093°17'2 3.6
2018-Jul-18 18:31N 30°13' W 093°16'0 0.5
2018-Jul-18 18:01N 30°13' W 093°16'0 0.9
2018-Jul-18 17:30N 30°14' W 093°15'0 0.0
2018-Jul-18 17:01N 30°14' W 093°15'0 0.0
2018-Jul-18 16:31N 30°14' W 093°15'0 0.0
2018-Jul-18 16:01N 30°14' W 093°15'0 0.0
2018-Jul-18 15:31N 30°14' W 093°15'0 0.0
2018-Jul-18 15:00N 30°14' W 093°15'0 0.0
2018-Jul-18 14:31N 30°14' W 093°15'0 0.0
2018-Jul-18 13:30N 30°14' W 093°15'0 0.0
2018-Jul-18 13:01N 30°14' W 093°15'0 0.0
2018-Jul-18 12:30N 30°14' W 093°15'0 0.0
2018-Jul-18 12:00N 30°14' W 093°15'0 0.0
2018-Jul-18 11:30N 30°14' W 093°15'0 0.0
2018-Jul-18 10:30N 30°14' W 093°15'0 0.0
2018-Jul-18 10:00N 30°14' W 093°15'0 0.0
2018-Jul-18 09:30N 30°14' W 093°15'0 0.0
2018-Jul-18 09:01N 30°14' W 093°15'0 0.0
2018-Jul-18 08:31N 30°14' W 093°15'0 0.0
2018-Jul-18 08:01N 30°14' W 093°15'0 0.0
2018-Jul-18 07:31N 30°14' W 093°15'0 0.0
2018-Jul-18 06:59N 30°14' W 093°15'0 0.0
2018-Jul-18 06:30N 30°14' W 093°15'0 0.0
2018-Jul-18 06:00N 30°14' W 093°15'0 0.0
2018-Jul-18 05:31N 30°14' W 093°15'0 0.0
2018-Jul-18 05:01N 30°14' W 093°15'0 0.0
2018-Jul-18 04:31N 30°14' W 093°15'0 0.0
2018-Jul-18 04:01N 30°14' W 093°15'0 0.0
2018-Jul-18 03:31N 30°14' W 093°15'0 0.0
2018-Jul-18 03:01N 30°14' W 093°15'0 0.0
2018-Jul-18 02:31N 30°14' W 093°15'0 0.0
2018-Jul-18 02:01N 30°14' W 093°15'0 0.0
2018-Jul-18 01:30N 30°14' W 093°15'0 0.0
2018-Jul-18 01:01N 30°14' W 093°15'0 0.0
2018-Jul-18 00:31N 30°14' W 093°15'0 0.0
2018-Jul-18 00:01N 30°14' W 093°15'0 0.0
2018-Jul-17 23:30N 30°14' W 093°15'0 0.0
2018-Jul-17 23:01N 30°14' W 093°15'0 0.0
2018-Jul-17 22:31N 30°14' W 093°15'0 0.0
2018-Jul-17 22:00N 30°14' W 093°15'0 0.0
2018-Jul-17 21:30N 30°14' W 093°15'0 0.0
2018-Jul-17 21:01N 30°14' W 093°15'0 0.0
2018-Jul-17 20:29N 30°14' W 093°15'0 0.0
2018-Jul-17 19:56N 30°14' W 093°15'0 1.0
2018-Jul-17 19:31N 30°14' W 093°16'0 0.5
2018-Jul-17 19:00N 30°13' W 093°16'0 0.0
2018-Jul-17 18:31N 30°13' W 093°16'1 1.2
2018-Jul-17 18:01N 30°14' W 093°15'1 1.3
2018-Jul-17 17:31N 30°13' W 093°16'0 0.0
2018-Jul-17 17:01N 30°13' W 093°16'0 0.0
2018-Jul-17 16:31N 30°13' W 093°16'0 0.0
2018-Jul-17 16:00N 30°13' W 093°16'0 0.0
2018-Jul-17 15:31N 30°13' W 093°16'0 0.0
2018-Jul-17 15:01N 30°13' W 093°16'0 0.0
2018-Jul-17 14:30N 30°13' W 093°16'0 0.0
2018-Jul-17 14:01N 30°13' W 093°16'0 0.0
2018-Jul-17 13:31N 30°13' W 093°16'0 0.0
2018-Jul-17 12:58N 30°13' W 093°16'0 0.0
2018-Jul-17 12:31N 30°13' W 093°16'0 0.0
2018-Jul-17 12:01N 30°13' W 093°16'0 0.0
2018-Jul-17 11:31N 30°13' W 093°16'0 0.0
2018-Jul-17 11:01N 30°13' W 093°16'0 0.0
2018-Jul-17 10:31N 30°13' W 093°16'0 0.0
2018-Jul-17 10:01N 30°13' W 093°16'0 0.0
2018-Jul-17 09:30N 30°13' W 093°16'0 0.0
2018-Jul-17 09:01N 30°13' W 093°16'0 0.0
2018-Jul-17 08:30N 30°13' W 093°16'0 0.0
2018-Jul-17 08:01N 30°13' W 093°16'0 0.0
2018-Jul-17 07:31N 30°13' W 093°16'0 0.0
2018-Jul-17 07:01N 30°13' W 093°16'0 0.0
2018-Jul-17 06:30N 30°13' W 093°16'0 0.0
2018-Jul-17 05:59N 30°13' W 093°16'0 0.0
2018-Jul-17 05:20N 30°13' W 093°16'0 0.0
2018-Jul-17 05:00N 30°13' W 093°16'0 0.0
2018-Jul-17 04:18N 30°13' W 093°16'0 0.0
2018-Jul-17 03:15N 30°13' W 093°16'0 0.0
2018-Jul-17 03:00N 30°13' W 093°16'0 0.0
2018-Jul-17 02:31N 30°13' W 093°16'0 0.0
2018-Jul-17 02:00N 30°13' W 093°16'0 0.0
2018-Jul-17 01:30N 30°13' W 093°16'0 0.0
2018-Jul-17 01:00N 30°13' W 093°16'0 0.0
2018-Jul-17 00:31N 30°13' W 093°16'0 0.0
2018-Jul-16 23:31N 30°13' W 093°16'0 0.0
2018-Jul-16 23:01N 30°13' W 093°16'0 0.0
2018-Jul-16 22:30N 30°13' W 093°16'0 0.0
2018-Jul-16 22:01N 30°13' W 093°16'0 0.0
2018-Jul-16 21:31N 30°13' W 093°16'0 0.0
2018-Jul-16 21:01N 30°13' W 093°16'0 0.0
2018-Jul-16 20:30N 30°13' W 093°16'0 0.0
2018-Jul-16 20:01N 30°13' W 093°16'0 0.0
2018-Jul-16 19:31N 30°13' W 093°16'0 0.0
2018-Jul-16 19:00N 30°13' W 093°16'0 0.0
2018-Jul-16 18:30N 30°13' W 093°16'0 0.0
2018-Jul-16 18:01N 30°13' W 093°16'0 0.0
2018-Jul-16 17:31N 30°13' W 093°16'0 0.0
2018-Jul-16 17:00N 30°13' W 093°16'0 0.0
2018-Jul-16 16:31N 30°13' W 093°16'0 0.0
2018-Jul-16 16:01N 30°13' W 093°16'0 0.0
2018-Jul-16 15:31N 30°13' W 093°16'0 0.0
2018-Jul-16 15:01N 30°13' W 093°16'0 0.0
2018-Jul-16 14:31N 30°13' W 093°16'0 0.0
2018-Jul-16 14:01N 30°13' W 093°16'0 0.0
2018-Jul-16 13:31N 30°13' W 093°16'0 0.0
2018-Jul-16 13:01N 30°13' W 093°16'0 0.0
2018-Jul-16 12:30N 30°13' W 093°16'0 0.0
2018-Jul-16 12:01N 30°13' W 093°16'0 0.0
2018-Jul-16 11:30N 30°13' W 093°16'0 0.0
2018-Jul-16 11:00N 30°13' W 093°16'0 0.0
2018-Jul-16 10:31N 30°13' W 093°16'0 0.0
2018-Jul-16 10:01N 30°13' W 093°16'0 0.0
2018-Jul-16 09:31N 30°13' W 093°16'0 0.0
2018-Jul-16 09:01N 30°13' W 093°16'0 0.0
2018-Jul-16 08:30N 30°13' W 093°16'0 0.0
2018-Jul-16 08:01N 30°13' W 093°16'0 0.0
2018-Jul-16 07:31N 30°13' W 093°16'0 0.0
2018-Jul-16 07:00N 30°13' W 093°16'0 0.0
2018-Jul-16 06:31N 30°13' W 093°16'0 0.0
2018-Jul-16 06:00N 30°13' W 093°16'0 0.0
2018-Jul-16 05:30N 30°13' W 093°16'0 0.0
2018-Jul-16 05:01N 30°13' W 093°16'0 0.0
2018-Jul-16 04:31N 30°13' W 093°16'0 0.0
2018-Jul-16 04:00N 30°13' W 093°16'0 0.0
2018-Jul-16 03:31N 30°13' W 093°16'0 0.0
2018-Jul-16 03:01N 30°13' W 093°16'0 0.0
2018-Jul-16 02:31N 30°13' W 093°16'0 0.0
2018-Jul-16 02:00N 30°13' W 093°16'0 0.0
2018-Jul-16 01:31N 30°13' W 093°16'0 0.1
2018-Jul-16 00:59N 30°13' W 093°16'0 0.1
2018-Jul-16 00:30N 30°13' W 093°16'0 0.0
2018-Jul-16 00:01N 30°13' W 093°16'0 0.0
2018-Jul-15 23:28N 30°13' W 093°16'0 0.0
2018-Jul-15 23:00N 30°13' W 093°16'0 0.0
2018-Jul-15 22:31N 30°13' W 093°16'0 0.0
2018-Jul-15 22:01N 30°13' W 093°16'0 0.0
2018-Jul-15 21:31N 30°13' W 093°16'0 0.0
2018-Jul-15 21:01N 30°13' W 093°16'0 0.0
2018-Jul-15 20:31N 30°13' W 093°16'0 0.0
2018-Jul-15 20:00N 30°13' W 093°16'0 0.0
2018-Jul-15 19:30N 30°13' W 093°16'0 0.0
2018-Jul-15 19:01N 30°13' W 093°16'0 0.0
2018-Jul-15 18:31N 30°13' W 093°16'0 0.0
2018-Jul-15 17:59N 30°13' W 093°16'0 0.0
2018-Jul-15 17:30N 30°13' W 093°16'0 0.0
2018-Jul-15 17:00N 30°13' W 093°16'0 0.0
2018-Jul-15 16:30N 30°13' W 093°16'0 0.0
2018-Jul-15 16:01N 30°13' W 093°16'0 0.0
2018-Jul-15 15:31N 30°13' W 093°16'0 0.0
2018-Jul-15 15:00N 30°13' W 093°16'0 0.0
2018-Jul-15 14:31N 30°13' W 093°16'0 0.0
2018-Jul-15 14:00N 30°13' W 093°16'0 0.0
2018-Jul-15 13:28N 30°13' W 093°16'0 0.0
2018-Jul-15 13:00N 30°13' W 093°16'0 0.0
2018-Jul-15 12:30N 30°13' W 093°16'0 0.0
2018-Jul-15 12:00N 30°13' W 093°16'0 0.0
2018-Jul-15 11:30N 30°13' W 093°16'0 0.0
2018-Jul-15 11:00N 30°13' W 093°16'0 0.0
2018-Jul-15 10:31N 30°13' W 093°16'0 0.0
2018-Jul-15 10:00N 30°13' W 093°16'0 0.0
2018-Jul-15 09:31N 30°13' W 093°16'0 0.1
2018-Jul-15 09:00N 30°13' W 093°16'0 0.0
2018-Jul-15 08:29N 30°13' W 093°16'0 0.0
2018-Jul-15 08:01N 30°13' W 093°16'0 0.0
2018-Jul-15 07:27N 30°13' W 093°16'0 0.0
2018-Jul-15 06:59N 30°13' W 093°16'0 0.0
2018-Jul-15 06:21N 30°13' W 093°16'0 0.0
2018-Jul-15 05:58N 30°13' W 093°16'0 0.0
2018-Jul-15 05:25N 30°13' W 093°16'0 0.0
2018-Jul-15 04:54N 30°13' W 093°16'0 0.0
2018-Jul-15 04:30N 30°13' W 093°16'0 0.0
2018-Jul-15 03:58N 30°13' W 093°16'0 0.0
2018-Jul-15 03:27N 30°13' W 093°16'0 0.0
2018-Jul-15 02:59N 30°13' W 093°16'0 0.0
2018-Jul-15 02:28N 30°13' W 093°16'0 0.0
2018-Jul-15 01:58N 30°13' W 093°16'0 0.0
2018-Jul-15 01:30N 30°13' W 093°16'0 0.0
2018-Jul-15 01:00N 30°13' W 093°16'0 0.0
2018-Jul-15 00:30N 30°13' W 093°16'0 0.0
2018-Jul-14 23:59N 30°13' W 093°16'0 0.0
2018-Jul-14 23:30N 30°13' W 093°16'0 0.0
2018-Jul-14 22:54N 30°13' W 093°16'0 0.0
2018-Jul-14 22:25N 30°13' W 093°16'0 0.0
2018-Jul-14 22:00N 30°13' W 093°16'0 0.0
2018-Jul-14 21:30N 30°13' W 093°16'0 0.0
2018-Jul-14 20:57N 30°13' W 093°16'0 0.0
2018-Jul-14 20:30N 30°13' W 093°16'0 0.0
2018-Jul-14 19:58N 30°13' W 093°16'0 0.0
2018-Jul-14 19:30N 30°13' W 093°16'0 0.0
2018-Jul-14 19:01N 30°13' W 093°16'0 0.0
2018-Jul-14 18:31N 30°13' W 093°16'0 0.0
2018-Jul-14 17:59N 30°13' W 093°16'0 0.0
2018-Jul-14 17:30N 30°13' W 093°16'0 0.0
2018-Jul-14 17:00N 30°13' W 093°16'0 0.0
2018-Jul-14 16:30N 30°13' W 093°16'0 0.0
2018-Jul-14 16:00N 30°13' W 093°16'0 0.0
2018-Jul-14 15:28N 30°13' W 093°16'0 0.0
2018-Jul-14 15:01N 30°13' W 093°16'0 0.0
2018-Jul-14 14:31N 30°13' W 093°16'0 0.0
2018-Jul-14 13:31N 30°13' W 093°16'0 0.0
2018-Jul-14 13:01N 30°13' W 093°16'0 0.0
2018-Jul-14 12:29N 30°13' W 093°16'0 0.0
2018-Jul-14 11:58N 30°13' W 093°16'0 0.0
2018-Jul-14 11:30N 30°13' W 093°16'0 0.0
2018-Jul-14 10:57N 30°13' W 093°16'0 0.0
2018-Jul-14 10:28N 30°13' W 093°16'0 0.0
2018-Jul-14 09:59N 30°13' W 093°16'0 0.0
2018-Jul-14 09:30N 30°13' W 093°16'0 0.0
2018-Jul-14 09:00N 30°13' W 093°16'0 0.0
2018-Jul-14 08:29N 30°13' W 093°16'0 0.0
2018-Jul-14 08:01N 30°13' W 093°16'0 0.0
2018-Jul-14 07:30N 30°13' W 093°16'0 0.0
2018-Jul-14 07:01N 30°13' W 093°16'0 0.0
2018-Jul-14 06:30N 30°13' W 093°16'0 0.0
2018-Jul-14 05:59N 30°13' W 093°16'0 0.0
2018-Jul-14 05:30N 30°13' W 093°16'0 0.0
2018-Jul-14 04:58N 30°13' W 093°16'0 0.0
2018-Jul-14 04:30N 30°13' W 093°16'0 0.0
2018-Jul-14 03:59N 30°13' W 093°16'0 0.0
2018-Jul-14 03:25N 30°13' W 093°16'0 0.0
2018-Jul-14 02:58N 30°13' W 093°16'0 0.0
2018-Jul-14 02:30N 30°13' W 093°16'0 0.0
2018-Jul-14 02:01N 30°13' W 093°16'0 0.0
2018-Jul-14 01:31N 30°13' W 093°16'0 0.0
2018-Jul-14 01:01N 30°13' W 093°16'0 0.0
2018-Jul-14 00:30N 30°13' W 093°16'0 0.0
2018-Jul-14 00:00N 30°13' W 093°16'0 0.0
2018-Jul-13 23:31N 30°13' W 093°16'0 0.0
2018-Jul-13 23:00N 30°13' W 093°16'0 0.0
2018-Jul-13 22:31N 30°13' W 093°16'0 0.0
2018-Jul-13 22:01N 30°13' W 093°16'0 0.0
2018-Jul-13 21:31N 30°13' W 093°16'0 0.0
2018-Jul-13 21:00N 30°13' W 093°16'0 0.0
2018-Jul-13 20:31N 30°13' W 093°16'0 0.0
2018-Jul-13 20:01N 30°13' W 093°16'0 0.0
2018-Jul-13 19:31N 30°13' W 093°16'0 0.0
2018-Jul-13 19:01N 30°13' W 093°16'0 0.0
2018-Jul-13 18:31N 30°13' W 093°16'0 0.0
2018-Jul-13 18:00N 30°13' W 093°16'0 0.0
2018-Jul-13 17:30N 30°13' W 093°16'0 0.7
2018-Jul-13 17:01N 30°13' W 093°16'3 6.8
2018-Jul-13 16:31N 30°11' W 093°19'3 6.6
2018-Jul-13 16:01N 30°08' W 093°20'3 5.8
2018-Jul-13 15:31N 30°05' W 093°20'2 4.2
2018-Jul-13 15:01N 30°04' W 093°22'1 1.6
2018-Jul-13 14:31N 30°04' W 093°23'4 4.4
2018-Jul-13 13:31N 30°04' W 093°28'1 1.7
2018-Jul-13 13:01N 30°04' W 093°29'1 1.0
2018-Jul-13 12:31N 30°04' W 093°29'2 3.0
2018-Jul-13 12:01N 30°04' W 093°31'3 5.5
2018-Jul-13 11:31N 30°04' W 093°34'2 4.6
2018-Jul-13 11:00N 30°04' W 093°37'2 3.7
2018-Jul-13 10:30N 30°04' W 093°39'3 5.6
2018-Jul-13 10:00N 30°03' W 093°42'3 6.7
2018-Jul-13 09:31N 30°01' W 093°45'4 7.2
2018-Jul-13 09:01N 29°59' W 093°49'3 5.5
2018-Jul-13 08:30N 29°58' W 093°51'4 7.4
2018-Jul-13 08:01N 29°54' W 093°54'4 7.2
2018-Jul-13 07:31N 29°52' W 093°56'3 6.0
2018-Jul-13 07:01N 29°49' W 093°58'2 3.3
2018-Jul-13 06:30N 29°48' W 094°00'3 5.2
2018-Jul-13 06:00N 29°47' W 094°02'2 4.5
2018-Jul-13 05:30N 29°45' W 094°04'2 4.8
2018-Jul-13 05:00N 29°44' W 094°06'3 5.5
2018-Jul-13 04:30N 29°42' W 094°09'3 5.5
2018-Jul-13 04:01N 29°41' W 094°12'3 5.4
2018-Jul-13 03:30N 29°40' W 094°15'3 5.3
2018-Jul-13 03:00N 29°38' W 094°17'3 5.4
2018-Jul-13 02:30N 29°37' W 094°20'4 4.4
2018-Jul-13 01:42N 29°36' W 094°24'1 4.1
2018-Jul-13 01:26N 29°35' W 094°25'3 4.0
2018-Jul-13 00:48N 29°34' W 094°27'2 6.2
2018-Jul-13 00:30N 29°32' W 094°29'13 5.7
2018-Jul-12 22:11N 29°26' W 094°42'3 3.4
2018-Jul-12 21:12N 29°24' W 094°45'1 5.6
2018-Jul-12 21:00N 29°23' W 094°46'2 5.0
2018-Jul-12 20:31N 29°23' W 094°49'4 7.9
2018-Jul-12 20:01N 29°27' W 094°50'4 7.8
2018-Jul-12 19:30N 29°30' W 094°52'4 7.8
2018-Jul-12 19:00N 29°34' W 094°55'4 7.9
2018-Jul-12 18:31N 29°37' W 094°57'4 8.0
2018-Jul-12 18:01N 29°41' W 094°59'4 6.4
2018-Jul-12 17:27N 29°43' W 095°01'4 7.2
2018-Jul-12 16:56N 29°46' W 095°05'1 1.3
2018-Jul-12 16:18N 29°46' W 095°05'0 0.9
2018-Jul-12 15:54N 29°46' W 095°05'1 0.3
2018-Jul-12 11:57N 29°45' W 095°06'0 0.0
2018-Jul-12 08:56N 29°45' W 095°06'1 1.3
2018-Jul-12 07:56N 29°46' W 095°05'3 5.3
2018-Jul-12 07:23N 29°44' W 095°08'5 0.4
2018-Jul-11 18:13N 29°44' W 095°14'0 0.0
2018-Jul-11 14:29N 29°44' W 095°14'0 0.0
2018-Jul-11 13:59N 29°44' W 095°14'0 0.0
2018-Jul-11 13:20N 29°44' W 095°14'0 0.0
2018-Jul-11 13:00N 29°44' W 095°14'0 0.0
2018-Jul-11 12:30N 29°44' W 095°14'0 0.1
2018-Jul-11 12:01N 29°44' W 095°14'3 2.4
2018-Jul-11 10:44N 29°45' W 095°11'3 7.5
2018-Jul-11 10:22N 29°44' W 095°08'3 7.3
2018-Jul-11 10:00N 29°46' W 095°05'0 0.0
2018-Jul-11 09:24N 29°46' W 095°05'0 0.0
2018-Jul-11 09:00N 29°46' W 095°05'0 0.0
2018-Jul-11 08:30N 29°46' W 095°05'0 0.0
2018-Jul-11 08:00N 29°46' W 095°05'0 0.0
2018-Jul-11 07:30N 29°46' W 095°05'0 0.0
2018-Jul-11 07:00N 29°46' W 095°05'0 0.0
2018-Jul-11 06:24N 29°46' W 095°05'0 0.0
2018-Jul-11 06:00N 29°46' W 095°05'0 0.0
2018-Jul-11 05:30N 29°46' W 095°05'0 0.0
2018-Jul-11 05:01N 29°46' W 095°05'0 0.0
2018-Jul-11 04:28N 29°46' W 095°05'0 0.0
2018-Jul-11 04:00N 29°46' W 095°05'0 0.0
2018-Jul-11 03:30N 29°46' W 095°05'0 0.0
2018-Jul-11 02:58N 29°46' W 095°05'0 0.1
2018-Jul-11 02:30N 29°46' W 095°05'1 0.2
2018-Jul-10 21:27N 29°45' W 095°06'3 6.0
2018-Jul-10 20:56N 29°44' W 095°09'4 0.9
2018-Jul-10 16:22N 29°46' W 095°05'1 1.7
2018-Jul-10 16:00N 29°46' W 095°06'1 1.1
2018-Jul-10 15:28N 29°46' W 095°05'0 0.0
2018-Jul-10 14:17N 29°46' W 095°05'0 0.0
2018-Jul-10 13:53N 29°46' W 095°05'0 0.0
2018-Jul-10 13:13N 29°46' W 095°05'0 0.0
2018-Jul-10 12:43N 29°46' W 095°05'0 0.0
2018-Jul-10 12:25N 29°46' W 095°05'0 0.0
2018-Jul-10 11:59N 29°46' W 095°05'0 0.0
2018-Jul-10 11:29N 29°46' W 095°05'0 0.0
2018-Jul-10 10:23N 29°46' W 095°05'1 1.8
2018-Jul-10 09:59N 29°46' W 095°06'1 1.2
2018-Jul-10 09:21N 29°46' W 095°05'0 0.0
2018-Jul-10 08:36N 29°46' W 095°05'0 0.0
2018-Jul-10 08:16N 29°46' W 095°05'0 0.0
2018-Jul-10 08:01N 29°46' W 095°05'0 0.0
2018-Jul-10 07:13N 29°46' W 095°05'0 0.0
2018-Jul-10 06:58N 29°46' W 095°05'  

Dump ship's entire track history